Terminal Aerodrome Forecast
Issued by NWS

Home | Current Version | Previous Version | Text Only | Print | Product List | Glossary On
Versions: 1 2 3 4 5 6 7 8 9 10 11 12 13 14 15
000
FTUS44 KOUN 231128
TAFHBR
TAF
KHBR 231128Z 2312/2412 18008KT 5SM BR BKN040
      TEMPO 2312/2314 2SM BR BKN012
     FM231800 20011KT P6SM SCT060
     FM240000 16008KT P6SM SCT250=

USA.gov is the U.S. government's official web portal to all federal, state and local government web resources and services.